Time;durP1;ratioP1;P1;durP2;ratioP2;P2;SDS_P1;SDS_P2;PMS_P1;PMS_P2;Temp;Humidity;BMP_temperature;BMP_pressure;BME280_temperature;BME280_humidity;BME280_pressure;Samples;Min_cycle;Max_cycle;Signal;HPM_P1;HPM_P2
2022/01/10 00:01:28;;;;;;;;;40.00;34.00;;;;;7.70;96.67;100293.38;5058612;28;45848;-78
2022/01/10 00:03:54;;;;;;;;;40.25;38.00;;;;;7.75;96.74;100312.16;5077197;28;45716;-77
2022/01/10 00:06:20;;;;;;;;;37.00;35.25;;;;;7.59;96.67;100289.69;5077402;28;46196;-77
2022/01/10 00:08:45;;;;;;;;;40.50;34.75;;;;;7.67;96.71;100304.81;5077404;28;45647;-79
2022/01/10 00:11:10;;;;;;;;;36.50;34.00;;;;;7.76;96.62;100325.09;5077775;28;45451;-77
2022/01/10 00:13:36;;;;;;;;;35.50;31.00;;;;;7.67;96.59;100315.25;5076843;28;45583;-76
2022/01/10 00:16:02;;;;;;;;;21.00;17.50;;;;;7.79;96.60;100337.09;5077148;28;46044;-78
2022/01/10 00:18:27;;;;;;;;;27.75;26.75;;;;;7.77;97.01;100347.66;5076714;28;45634;-78
2022/01/10 00:20:53;;;;;;;;;24.75;20.00;;;;;7.79;96.78;100352.75;5076822;28;45643;-77
2022/01/10 00:23:18;;;;;;;;;24.75;22.25;;;;;7.72;96.60;100347.06;5076769;28;45538;-76
2022/01/10 00:25:43;;;;;;;;;33.50;27.25;;;;;7.79;96.56;100356.19;5077006;28;46568;-77
2022/01/10 00:28:09;;;;;;;;;25.50;21.75;;;;;7.80;96.53;100357.03;5076972;28;45467;-78
2022/01/10 00:33:56;;;;;;;;;31.50;30.00;;;;;7.77;96.49;100352.03;5078467;28;46477;-78
2022/01/10 00:36:21;;;;;;;;;32.50;26.50;;;;;7.69;96.73;100347.28;5082073;28;45435;-78
2022/01/10 00:38:47;;;;;;;;;29.25;27.00;;;;;7.76;96.74;100364.22;5078614;28;45553;-77
2022/01/10 00:41:12;;;;;;;;;25.50;23.50;;;;;7.77;96.64;100365.06;5077157;28;45600;-78
2022/01/10 00:43:45;;;;;;;;;25.50;22.50;;;;;7.70;96.74;100364.59;5074615;28;46592;-78
2022/01/10 00:46:10;;;;;;;;;27.00;23.00;;;;;7.75;96.81;100372.97;5075965;28;47152;-77
2022/01/10 00:48:36;;;;;;;;;25.00;20.75;;;;;7.75;96.52;100372.13;5076083;28;45600;-76
2022/01/10 00:51:01;;;;;;;;;26.75;22.75;;;;;7.73;96.54;100371.38;5076234;28;45439;-78
2022/01/10 00:53:26;;;;;;;;;18.25;16.25;;;;;7.76;96.55;100369.44;5076202;28;46842;-78
2022/01/10 00:55:52;;;;;;;;;17.50;14.75;;;;;7.81;96.52;100383.00;5074485;28;46155;-78
2022/01/10 00:58:18;;;;;;;;;11.75;11.00;;;;;7.82;96.61;100376.03;5075785;28;45515;-78
2022/01/10 01:04:05;;;;;;;;;19.25;16.25;;;;;7.84;96.51;100382.81;5077463;28;45640;-77
2022/01/10 01:06:31;;;;;;;;;14.50;14.00;;;;;7.86;96.63;100377.50;5077128;28;45591;-78
2022/01/10 01:09:01;;;;;;;;;20.25;15.75;;;;;7.86;96.79;100383.56;5075598;28;45578;-77
2022/01/10 01:14:05;;;;;;;;;14.00;13.50;;;;;7.85;96.69;100392.31;5075575;28;45522;-77
2022/01/10 01:24:15;;;;;;;;;19.50;14.00;;;;;7.94;96.41;100422.19;5075634;28;45593;-79
2022/01/10 01:26:41;;;;;;;;;11.50;10.00;;;;;7.95;96.56;100434.28;5075454;28;46381;-78
2022/01/10 01:29:10;;;;;;;;;14.50;13.50;;;;;7.95;96.46;100432.53;5075153;28;45662;-77
2022/01/10 01:31:37;;;;;;;;;18.25;15.00;;;;;7.91;96.58;100420.63;5075326;28;45533;-77
2022/01/10 01:34:03;;;;;;;;;17.50;15.25;;;;;7.97;96.66;100440.25;5056459;28;46589;-78
2022/01/10 01:36:30;;;;;;;;;14.75;14.00;;;;;7.98;96.46;100444.56;5075171;28;45696;-78
2022/01/10 01:38:56;;;;;;;;;20.75;16.50;;;;;7.94;96.51;100440.44;5075127;28;45528;-78
2022/01/10 01:43:49;;;;;;;;;23.25;21.00;;;;;7.98;96.40;100452.38;5075023;28;45580;-78
2022/01/10 01:49:36;;;;;;;;;18.25;18.25;;;;;8.02;96.56;100469.50;5074684;28;45897;-77
2022/01/10 01:52:02;;;;;;;;;23.75;18.25;;;;;8.00;96.38;100469.59;5074783;28;45598;-78
2022/01/10 01:54:27;;;;;;;;;18.00;16.50;;;;;8.01;96.60;100463.44;5074779;28;46481;-78
2022/01/10 01:56:52;;;;;;;;;13.75;12.25;;;;;8.04;96.59;100469.41;5074849;28;45574;-77
2022/01/10 01:59:18;;;;;;;;;11.75;11.50;;;;;8.09;96.49;100483.00;5074826;28;45565;-76
2022/01/10 02:01:44;;;;;;;;;13.00;11.25;;;;;8.04;96.34;100466.81;5074858;28;45490;-77
2022/01/10 02:04:09;;;;;;;;;9.75;9.75;;;;;8.07;96.58;100475.28;5074650;28;45525;-77
2022/01/10 02:06:35;;;;;;;;;11.50;10.50;;;;;8.10;96.58;100482.88;5074425;28;45582;-76
2022/01/10 02:09:00;;;;;;;;;9.50;9.50;;;;;7.98;96.49;100461.03;5074533;28;45621;-77
2022/01/10 02:11:27;;;;;;;;;8.25;7.75;;;;;8.08;96.36;100476.94;5074790;28;45623;-77
2022/01/10 02:13:52;;;;;;;;;15.00;9.25;;;;;8.11;96.54;100494.16;5074686;28;46989;-77
2022/01/10 02:19:39;;;;;;;;;11.25;8.50;;;;;8.04;96.57;100485.91;5074332;28;45842;-78
2022/01/10 02:22:05;;;;;;;;;10.00;10.00;;;;;8.10;96.46;100498.53;5074698;28;45456;-78
2022/01/10 02:24:30;;;;;;;;;14.25;10.00;;;;;8.08;96.43;100491.75;5074494;28;46634;-77
2022/01/10 02:26:56;;;;;;;;;10.50;9.50;;;;;8.05;96.54;100495.38;5073071;28;46968;-78
2022/01/10 02:29:21;;;;;;;;;22.50;20.00;;;;;8.08;96.81;100494.38;5074099;28;45633;-78
2022/01/10 02:31:47;;;;;;;;;28.50;24.75;;;;;8.11;96.71;100502.84;5074554;28;45673;-77
2022/01/10 02:34:18;;;;;;;;;24.00;21.25;;;;;8.10;96.45;100489.91;5073954;28;46651;-78
2022/01/10 02:36:44;;;;;;;;;32.25;29.00;;;;;8.11;96.54;100492.41;5074437;28;46012;-77
2022/01/10 02:39:11;;;;;;;;;28.25;26.75;;;;;8.14;96.60;100494.84;5074122;28;45967;-78
2022/01/10 02:41:39;;;;;;;;;31.50;26.75;;;;;8.14;96.41;100507.03;5074413;28;45698;-77
2022/01/10 02:44:10;;;;;;;;;32.00;29.00;;;;;8.10;96.64;100501.16;5073845;28;46418;-77
2022/01/10 02:49:58;;;;;;;;;39.00;36.25;;;;;7.94;96.54;100484.78;5073999;28;45529;-81
2022/01/10 02:52:23;;;;;;;;;39.00;34.25;;;;;8.05;96.65;100507.59;5074480;28;45706;-77
2022/01/10 02:54:49;;;;;;;;;39.75;36.50;;;;;8.12;96.31;100529.75;5073977;28;47157;-77
2022/01/10 02:57:14;;;;;;;;;40.50;37.50;;;;;8.12;96.67;100533.22;5074026;28;46255;-77
2022/01/10 02:59:40;;;;;;;;;46.50;40.50;;;;;8.10;96.57;100526.44;5073979;28;45710;-78
2022/01/10 03:02:07;;;;;;;;;42.75;38.25;;;;;8.10;96.31;100531.66;5074644;28;45593;-77
2022/01/10 03:04:33;;;;;;;;;47.75;38.00;;;;;8.09;96.63;100541.25;5075767;28;45594;-78
2022/01/10 03:06:58;;;;;;;;;37.25;35.75;;;;;8.08;96.69;100544.78;5075628;28;46076;-77
2022/01/10 03:09:24;;;;;;;;;40.25;36.00;;;;;8.09;96.68;100553.44;5056585;28;45607;-77
2022/01/10 03:11:50;;;;;;;;;46.25;35.00;;;;;8.08;96.44;100546.56;5075696;28;45747;-78
2022/01/10 03:14:16;;;;;;;;;42.75;38.25;;;;;8.08;96.67;100550.00;5075811;28;45532;-77
2022/01/10 03:20:08;;;;;;;;;37.25;33.25;;;;;8.04;96.73;100552.91;5076703;28;45887;-77
2022/01/10 03:22:34;;;;;;;;;42.00;36.75;;;;;8.04;96.44;100553.75;5077315;28;45482;-77
2022/01/10 03:25:00;;;;;;;;;42.75;36.00;;;;;7.95;96.57;100542.09;5077209;28;46331;-79
2022/01/10 03:27:25;;;;;;;;;38.50;36.50;;;;;8.01;96.50;100562.56;5077434;28;45673;-78
2022/01/10 03:29:52;;;;;;;;;39.00;36.50;;;;;8.04;96.46;100571.16;5076832;28;45573;-77
2022/01/10 03:32:18;;;;;;;;;42.25;39.00;;;;;8.04;96.47;100566.78;5077789;28;45936;-77
2022/01/10 03:34:43;;;;;;;;;42.25;36.25;;;;;7.98;96.50;100560.16;5076852;28;45573;-77
2022/01/10 03:37:09;;;;;;;;;39.50;38.00;;;;;7.92;96.54;100554.47;5077022;28;46262;-77
2022/01/10 03:39:35;;;;;;;;;42.00;37.25;;;;;8.00;96.46;100570.50;5076896;28;45687;-77
2022/01/10 03:42:01;;;;;;;;;40.50;38.50;;;;;8.01;96.54;100582.59;5076855;28;45674;-75
2022/01/10 03:44:26;;;;;;;;;40.00;36.25;;;;;8.02;96.43;100584.28;5076773;28;45672;-75
2022/01/10 03:50:13;;;;;;;;;41.25;38.00;;;;;7.96;96.55;100585.50;5076451;28;45789;-78
2022/01/10 03:52:38;;;;;;;;;39.50;36.25;;;;;7.99;96.59;100594.88;5077253;28;45585;-78
2022/01/10 03:55:05;;;;;;;;;38.25;33.00;;;;;7.95;96.52;100593.41;5077333;28;46192;-77
2022/01/10 03:57:30;;;;;;;;;41.50;35.50;;;;;7.94;96.42;100600.41;5077779;28;45849;-75
2022/01/10 03:59:56;;;;;;;;;41.50;37.50;;;;;7.96;96.51;100603.75;5077502;28;45470;-79
2022/01/10 04:02:23;;;;;;;;;40.50;37.75;;;;;7.91;96.25;100592.75;5080684;28;45920;-78
2022/01/10 04:04:48;;;;;;;;;42.50;39.50;;;;;7.84;96.39;100590.59;5084014;28;45545;-78
2022/01/10 04:07:16;;;;;;;;;37.75;33.50;;;;;7.92;96.38;100606.66;5080639;28;46276;-78
2022/01/10 04:09:42;;;;;;;;;40.50;35.50;;;;;7.85;96.60;100602.72;5088741;28;45688;-78
2022/01/10 04:12:07;;;;;;;;;40.00;36.00;;;;;7.92;96.41;100617.09;5094402;28;45335;-78
2022/01/10 04:14:33;;;;;;;;;35.75;32.75;;;;;7.92;96.66;100617.09;5095544;28;45616;-78
2022/01/10 04:20:20;;;;;;;;;34.75;32.00;;;;;7.88;96.71;100624.22;5094685;28;45419;-80
2022/01/10 04:22:45;;;;;;;;;39.00;35.75;;;;;7.87;96.51;100635.63;5093242;28;45813;-77
2022/01/10 04:25:11;;;;;;;;;40.75;37.50;;;;;7.85;96.69;100637.47;5062660;28;48299;-76
2022/01/10 04:27:37;;;;;;;;;38.50;36.50;;;;;7.84;96.53;100632.34;5078955;28;46005;-77
2022/01/10 04:30:03;;;;;;;;;41.75;36.00;;;;;7.80;96.46;100636.91;5078629;28;45608;-78
2022/01/10 04:32:31;;;;;;;;;41.00;35.25;;;;;7.84;96.41;100641.00;5077060;28;45633;-77
2022/01/10 04:34:56;;;;;;;;;43.00;36.50;;;;;7.80;96.54;100636.91;5076332;28;45622;-77
2022/01/10 04:37:22;;;;;;;;;41.25;39.00;;;;;7.77;96.71;100631.88;5076683;28;45678;-78
2022/01/10 04:39:47;;;;;;;;;45.50;40.00;;;;;7.82;96.34;100650.69;5076636;28;45569;-79
2022/01/10 04:42:13;;;;;;;;;37.75;33.75;;;;;7.81;96.60;100649.03;5076847;28;45482;-77
2022/01/10 04:44:38;;;;;;;;;40.50;36.50;;;;;7.65;96.49;100630.00;5076570;28;45625;-77
2022/01/10 04:53:09;;;;;;;;;42.00;38.50;;;;;7.68;96.85;100665.47;5075978;28;45639;-78
2022/01/10 04:55:34;;;;;;;;;36.50;36.25;;;;;7.73;96.65;100679.06;5076170;28;45560;-77
2022/01/10 04:58:00;;;;;;;;;47.75;36.00;;;;;7.72;96.53;100696.47;5076314;28;46209;-75
2022/01/10 05:00:25;;;;;;;;;43.25;39.00;;;;;7.71;96.67;100694.81;5075947;28;45566;-76
2022/01/10 05:02:51;;;;;;;;;36.00;31.00;;;;;7.52;96.52;100668.94;5075757;28;45473;-77
2022/01/10 05:05:17;;;;;;;;;42.75;38.50;;;;;7.68;96.43;100702.81;5074117;28;47481;-77
2022/01/10 05:07:42;;;;;;;;;37.25;36.00;;;;;7.69;96.37;100701.88;5075875;28;46109;-78
2022/01/10 05:10:08;;;;;;;;;47.00;39.25;;;;;7.69;96.30;100701.03;5057286;28;45599;-77
2022/01/10 05:12:33;;;;;;;;;46.00;40.50;;;;;7.66;96.55;100703.84;5075858;28;45872;-77
2022/01/10 05:14:59;;;;;;;;;44.50;39.00;;;;;7.64;96.53;100705.69;5075241;28;46934;-77
2022/01/10 05:20:46;;;;;;;;;42.75;36.00;;;;;7.64;96.31;100714.34;5075031;28;45957;-77
2022/01/10 05:23:12;;;;;;;;;43.75;38.75;;;;;7.63;96.37;100722.25;5075703;28;45471;-78
2022/01/10 05:25:40;;;;;;;;;37.50;34.25;;;;;7.59;96.57;100722.44;5075287;28;46829;-77
2022/01/10 05:28:07;;;;;;;;;46.75;40.50;;;;;7.56;96.44;100725.19;5074932;28;47093;-78
2022/01/10 05:30:33;;;;;;;;;48.50;37.50;;;;;7.57;96.54;100726.88;5075018;28;45904;-76
2022/01/10 05:32:58;;;;;;;;;30.75;29.00;;;;;7.55;96.53;100725.31;5075279;28;45543;-78
2022/01/10 05:35:24;;;;;;;;;45.25;40.00;;;;;7.57;96.55;100746.91;5056754;28;47493;-78
2022/01/10 05:37:49;;;;;;;;;42.75;37.00;;;;;7.49;96.59;100741.28;5075322;28;45563;-77
2022/01/10 05:40:15;;;;;;;;;48.50;42.00;;;;;7.51;96.34;100742.03;5074947;28;45565;-78
2022/01/10 05:42:41;;;;;;;;;38.75;35.00;;;;;7.52;96.38;100747.16;5074874;28;45556;-78
2022/01/10 05:45:07;;;;;;;;;48.25;40.50;;;;;7.51;96.52;100749.84;5075186;28;45760;-77
2022/01/10 05:50:54;;;;;;;;;40.75;38.50;;;;;7.50;96.46;100772.47;5075341;28;45762;-77
2022/01/10 05:53:20;;;;;;;;;43.75;40.00;;;;;7.50;96.31;100766.44;5076090;28;45874;-78
2022/01/10 05:55:47;;;;;;;;;45.25;40.00;;;;;7.45;96.57;100760.63;5075599;28;46277;-78
2022/01/10 05:58:12;;;;;;;;;44.75;40.25;;;;;7.38;96.53;100760.13;5075410;28;46621;-78
2022/01/10 06:00:38;;;;;;;;;45.75;39.00;;;;;7.48;96.57;100782.16;5075229;28;45683;-77
2022/01/10 06:03:04;;;;;;;;;46.75;41.50;;;;;7.48;96.37;100786.53;5075404;28;45456;-77
2022/01/10 06:05:33;;;;;;;;;49.50;40.50;;;;;7.38;96.48;100775.78;5075024;28;45427;-77
2022/01/10 06:08:00;;;;;;;;;49.25;40.25;;;;;7.46;96.37;100793.56;5074802;28;46084;-77
2022/01/10 06:10:25;;;;;;;;;53.75;44.50;;;;;7.45;96.45;100804.94;5075130;28;45680;-76
2022/01/10 06:12:51;;;;;;;;;59.75;46.50;;;;;7.18;96.49;100760.38;5075279;28;45617;-77
2022/01/10 06:15:17;;;;;;;;;46.75;37.25;;;;;7.43;96.47;100809.38;5074833;28;45822;-76
2022/01/10 06:21:04;;;;;;;;;51.50;43.00;;;;;7.41;96.36;100837.28;5074568;28;45832;-78
2022/01/10 06:23:29;;;;;;;;;55.00;44.50;;;;;7.40;96.49;100840.81;5075263;28;45610;-78
2022/01/10 06:25:55;;;;;;;;;54.25;41.75;;;;;7.39;96.52;100845.22;5074340;28;45684;-77
2022/01/10 06:28:20;;;;;;;;;52.00;42.50;;;;;7.37;96.53;100847.06;5056362;28;45668;-78
2022/01/10 06:30:45;;;;;;;;;48.50;41.50;;;;;7.31;96.54;100843.94;5074783;28;45685;-78
2022/01/10 06:33:12;;;;;;;;;52.00;43.25;;;;;7.25;96.29;100844.25;5073809;28;45842;-77
2022/01/10 06:35:40;;;;;;;;;51.75;42.00;;;;;7.29;96.54;100856.22;5073433;28;45904;-78
2022/01/10 06:38:06;;;;;;;;;46.75;41.75;;;;;7.26;96.34;100854.59;5074196;28;46149;-78
2022/01/10 06:40:31;;;;;;;;;46.75;42.00;;;;;7.24;96.35;100848.63;5074547;28;45573;-78
2022/01/10 06:42:57;;;;;;;;;46.75;40.50;;;;;7.23;96.52;100861.75;5074429;28;45898;-78
2022/01/10 06:45:22;;;;;;;;;42.75;39.00;;;;;7.23;96.44;100870.41;5074404;28;45651;-78
2022/01/10 06:51:09;;;;;;;;;53.75;43.25;;;;;7.20;96.34;100899.22;5074296;28;45935;-77
2022/01/10 06:53:34;;;;;;;;;46.00;39.50;;;;;7.18;96.34;100895.03;5074976;28;45479;-78
2022/01/10 06:56:00;;;;;;;;;46.50;39.50;;;;;7.15;96.28;100899.47;5078029;28;45497;-78
2022/01/10 06:58:25;;;;;;;;;46.50;40.75;;;;;7.15;96.03;100914.25;5059794;28;45568;-77
2022/01/10 07:00:50;;;;;;;;;43.00;39.00;;;;;7.18;96.24;100926.28;5059473;28;45679;-77
2022/01/10 07:03:16;;;;;;;;;49.75;41.25;;;;;7.18;96.17;100936.72;5077486;28;45824;-77
2022/01/10 07:05:41;;;;;;;;;47.75;39.75;;;;;7.18;96.35;100949.75;5078249;28;46506;-77
2022/01/10 07:08:07;;;;;;;;;47.00;39.25;;;;;7.10;96.35;100945.75;5077178;28;47190;-76
2022/01/10 07:10:32;;;;;;;;;44.25;39.00;;;;;7.16;96.11;100947.22;5077659;28;45573;-77
2022/01/10 07:12:58;;;;;;;;;44.50;38.75;;;;;7.13;96.42;100955.16;5077680;28;45616;-77
2022/01/10 07:15:25;;;;;;;;;36.00;31.75;;;;;7.09;96.25;100966.66;5076755;28;47030;-76
2022/01/10 07:21:14;;;;;;;;;38.00;33.25;;;;;6.97;96.10;100973.34;5077433;28;45675;-77
2022/01/10 07:23:39;;;;;;;;;41.25;34.00;;;;;7.03;96.15;100990.41;5059174;28;45963;-77
2022/01/10 07:26:06;;;;;;;;;37.75;33.75;;;;;7.02;96.19;100992.19;5077044;28;46472;-78
2022/01/10 07:28:33;;;;;;;;;36.25;32.25;;;;;6.94;96.27;100991.75;5076946;28;45977;-75
2022/01/10 07:30:58;;;;;;;;;25.75;22.50;;;;;6.99;96.31;101007.13;5077120;28;45526;-77
2022/01/10 07:33:24;;;;;;;;;24.75;20.50;;;;;7.00;96.11;101020.09;5077306;28;45655;-77
2022/01/10 07:35:51;;;;;;;;;19.00;18.75;;;;;6.89;96.13;101006.75;5058944;28;46463;-79
2022/01/10 07:38:17;;;;;;;;;25.00;21.00;;;;;6.94;96.31;101025.59;5076760;28;46617;-77
2022/01/10 07:40:43;;;;;;;;;27.25;23.00;;;;;6.83;96.11;101014.00;5076616;28;45644;-79
2022/01/10 07:43:08;;;;;;;;;26.50;20.00;;;;;6.90;96.15;101044.06;5076911;28;45517;-77
2022/01/10 07:45:34;;;;;;;;;22.75;21.75;;;;;6.84;95.99;101040.00;5076951;28;45549;-78
2022/01/10 07:51:26;;;;;;;;;23.25;20.50;;;;;6.77;96.36;101051.59;5076768;28;45857;-76
2022/01/10 07:53:52;;;;;;;;;28.75;22.25;;;;;6.82;96.24;101064.41;5076925;28;45557;-78
2022/01/10 07:56:18;;;;;;;;;22.50;19.25;;;;;6.81;96.39;101075.72;5076748;28;46662;-76
2022/01/10 07:58:45;;;;;;;;;26.00;21.50;;;;;6.82;95.99;101093.03;5076479;28;47112;-78
2022/01/10 08:01:10;;;;;;;;;21.50;19.50;;;;;6.77;96.08;101097.63;5077087;28;45685;-78
2022/01/10 08:03:36;;;;;;;;;22.25;19.25;;;;;6.74;95.99;101107.28;5077104;28;45855;-79
2022/01/10 08:06:02;;;;;;;;;22.50;19.75;;;;;6.71;96.17;101107.41;5075083;28;48251;-77
2022/01/10 08:08:28;;;;;;;;;24.75;22.00;;;;;6.65;96.13;101099.03;5075951;28;45686;-77
2022/01/10 08:10:53;;;;;;;;;29.75;20.75;;;;;6.68;96.01;101109.34;5076611;28;45668;-77
2022/01/10 08:13:19;;;;;;;;;21.00;21.00;;;;;6.69;96.16;101113.63;5058297;28;45870;-77
2022/01/10 08:15:44;;;;;;;;;24.50;21.00;;;;;6.55;95.82;101085.63;5076580;28;46557;-77
2022/01/10 08:21:45;;;;;;;;;31.50;28.25;;;;;6.72;96.18;101126.50;5076650;28;45791;-78
2022/01/10 08:24:10;;;;;;;;;32.75;25.75;;;;;6.71;95.93;101127.41;5076461;28;45684;-79
2022/01/10 08:26:36;;;;;;;;;29.50;26.75;;;;;6.72;95.82;101131.69;5076071;28;46366;-77
2022/01/10 08:29:01;;;;;;;;;30.00;27.25;;;;;6.74;96.16;101138.53;5076730;28;47239;-77
2022/01/10 08:31:27;;;;;;;;;42.25;33.00;;;;;6.77;95.91;101141.91;5077456;28;45600;-78
2022/01/10 08:33:52;;;;;;;;;28.75;25.75;;;;;6.67;95.78;101131.91;5076122;28;45714;-79
2022/01/10 08:36:18;;;;;;;;;29.50;25.25;;;;;6.70;96.08;101157.81;5076892;28;45639;-76
2022/01/10 08:38:43;;;;;;;;;31.00;28.25;;;;;6.56;95.93;101128.13;5075861;28;45900;-77
2022/01/10 08:41:09;;;;;;;;;29.25;25.25;;;;;6.63;95.81;101148.59;5076353;28;45744;-78
2022/01/10 08:43:34;;;;;;;;;24.25;22.50;;;;;6.65;96.42;101161.53;5076397;28;45530;-78
2022/01/10 08:46:00;;;;;;;;;21.50;17.00;;;;;6.60;95.82;101159.13;5076140;28;45833;-77
2022/01/10 08:51:53;;;;;;;;;25.25;23.00;;;;;6.65;96.08;101184.97;5076209;28;45557;-77
2022/01/10 08:54:21;;;;;;;;;21.75;21.00;;;;;6.63;96.18;101172.03;5075768;28;45927;-77
2022/01/10 08:56:46;;;;;;;;;23.50;20.50;;;;;6.62;95.90;101175.53;5076034;28;45497;-78
2022/01/10 08:59:13;;;;;;;;;21.00;16.25;;;;;6.56;96.10;101180.19;5057482;28;46257;-77
2022/01/10 09:01:38;;;;;;;;;19.25;16.75;;;;;6.55;96.11;101184.53;5057598;28;45931;-77
2022/01/10 09:04:04;;;;;;;;;25.75;20.25;;;;;6.58;96.08;101202.63;5075340;28;45876;-78
2022/01/10 09:06:29;;;;;;;;;21.00;16.75;;;;;6.58;96.09;101207.00;5075564;28;46693;-78
2022/01/10 09:08:54;;;;;;;;;24.50;18.25;;;;;6.52;96.00;101202.06;5075306;28;46027;-77
2022/01/10 09:11:20;;;;;;;;;17.50;16.50;;;;;6.58;96.01;101220.00;5075417;28;45611;-78
2022/01/10 09:13:45;;;;;;;;;22.50;18.00;;;;;6.57;95.95;101224.38;5057265;28;45741;-78
2022/01/10 09:16:13;;;;;;;;;21.75;20.00;;;;;6.57;95.80;101234.78;5074210;28;47364;-78
2022/01/10 09:22:00;;;;;;;;;23.25;21.00;;;;;6.50;95.93;101222.94;5074279;28;45601;-77
2022/01/10 09:24:26;;;;;;;;;25.50;20.75;;;;;6.53;95.76;101233.22;5074288;28;45637;-77
2022/01/10 09:26:51;;;;;;;;;24.50;20.50;;;;;6.58;95.67;101248.66;5074203;28;45681;-77
2022/01/10 09:29:17;;;;;;;;;27.50;21.75;;;;;6.52;95.75;101236.75;5073400;28;46161;-76
2022/01/10 09:31:42;;;;;;;;;25.00;21.00;;;;;6.63;95.81;101250.13;5074261;28;45731;-79
2022/01/10 09:34:07;;;;;;;;;22.00;18.00;;;;;6.66;95.95;101243.94;5074071;28;45619;-77
2022/01/10 09:36:34;;;;;;;;;25.00;19.00;;;;;6.67;95.70;101253.44;5074315;28;45633;-77
2022/01/10 09:39:00;;;;;;;;;26.25;18.25;;;;;6.63;96.00;101252.75;5073503;28;47221;-78
2022/01/10 09:41:26;;;;;;;;;25.25;19.25;;;;;6.68;95.89;101263.78;5073803;28;46024;-78
2022/01/10 09:43:56;;;;;;;;;25.75;18.50;;;;;6.67;95.91;101259.50;5074357;28;45514;-78
2022/01/10 09:46:24;;;;;;;;;20.75;19.50;;;;;6.70;95.71;101274.13;5073729;28;47400;-77
2022/01/10 09:52:13;;;;;;;;;20.50;18.50;;;;;6.75;95.82;101280.81;5073956;28;46009;-76
2022/01/10 09:54:38;;;;;;;;;22.75;17.75;;;;;6.78;95.74;101285.06;5074136;28;45764;-76
2022/01/10 09:57:04;;;;;;;;;26.50;21.00;;;;;6.81;95.56;101291.88;5073590;28;46358;-78
2022/01/10 09:59:30;;;;;;;;;21.75;21.25;;;;;6.74;95.90;101286.94;5073490;28;46137;-78
2022/01/10 10:01:56;;;;;;;;;26.75;24.25;;;;;6.81;95.71;101299.66;5073723;28;45897;-78
2022/01/10 10:04:21;;;;;;;;;31.25;25.25;;;;;6.84;95.78;101303.00;5073994;28;45830;-79
2022/01/10 10:06:47;;;;;;;;;28.50;22.75;;;;;6.86;95.73;101308.97;5073757;28;45644;-77
2022/01/10 10:09:13;;;;;;;;;30.25;22.00;;;;;6.87;95.61;101320.25;5073123;28;46168;-78
2022/01/10 10:11:51;;;;;;;;;24.75;20.50;;;;;6.86;95.38;101319.38;5073595;28;45875;-78
2022/01/10 10:14:18;;;;;;;;;25.50;18.50;;;;;6.86;95.74;101318.53;5073718;28;45902;-77
2022/01/10 10:22:53;;;;;;;;;27.75;24.00;;;;;6.85;95.76;101324.69;5072775;28;45610;-81
2022/01/10 10:25:19;;;;;;;;;26.00;22.25;;;;;6.79;95.62;101315.38;5073437;28;45636;-79
2022/01/10 10:27:46;;;;;;;;;31.50;25.00;;;;;6.82;95.54;101310.03;5074148;28;46927;-80
2022/01/10 10:30:27;;;;;;;;;27.50;22.75;;;;;6.93;95.82;101327.78;5055564;28;47069;-80
2022/01/10 10:33:08;;;;;;;;;21.25;18.25;;;;;6.92;95.48;101323.47;5073634;28;45601;-82
2022/01/10 10:35:35;;;;;;;;;25.00;22.00;;;;;6.93;95.41;101326.03;5074124;28;45803;-80
2022/01/10 10:38:01;;;;;;;;;25.25;23.00;;;;;7.02;95.69;101332.56;5076214;28;46523;-76
2022/01/10 10:40:29;;;;;;;;;35.50;28.50;;;;;7.09;95.50;101340.06;5073519;28;46184;-79
2022/01/10 10:43:00;;;;;;;;;26.25;22.25;;;;;7.13;95.54;101341.59;5073258;28;45953;-78
2022/01/10 10:45:28;;;;;;;;;27.25;23.00;;;;;7.16;95.58;101341.50;5072623;28;45806;-78
2022/01/10 10:47:55;;;;;;;;;26.00;22.00;;;;;7.19;95.51;101353.50;5073402;28;46966;-81
2022/01/10 10:50:23;;;;;;;;;36.00;26.00;;;;;7.22;95.58;101342.97;5075224;28;46252;-80
2022/01/10 10:52:49;;;;;;;;;25.75;21.75;;;;;7.25;95.43;101360.22;5074394;28;45944;-79
2022/01/10 10:55:15;;;;;;;;;32.50;24.75;;;;;7.28;95.64;101347.91;5055612;28;45654;-79
2022/01/10 10:57:43;;;;;;;;;35.75;26.75;;;;;7.32;95.37;101352.06;5072581;28;47404;-80
2022/01/10 11:00:15;;;;;;;;;25.00;22.00;;;;;7.39;95.29;101356.09;5072320;28;47281;-78
2022/01/10 11:02:41;;;;;;;;;31.00;26.50;;;;;7.42;95.60;101362.91;5072981;28;46093;-78
2022/01/10 11:05:08;;;;;;;;;34.00;28.75;;;;;7.43;95.41;101364.59;5073035;28;45665;-78
2022/01/10 11:07:35;;;;;;;;;34.75;24.25;;;;;7.44;95.54;101355.88;5073076;28;46303;-78
2022/01/10 11:10:04;;;;;;;;;30.50;25.75;;;;;7.47;95.57;101364.38;5073699;28;45910;-76
2022/01/10 11:12:31;;;;;;;;;32.75;25.50;;;;;7.49;95.51;101370.38;5054729;28;45485;-76
2022/01/10 11:14:59;;;;;;;;;32.50;29.00;;;;;7.52;95.49;101367.63;5073354;28;45656;-77
2022/01/10 11:17:25;;;;;;;;;30.50;26.50;;;;;7.55;95.49;101361.44;5073644;28;46558;-77
2022/01/10 11:20:10;;;;;;;;;27.75;20.50;;;;;7.55;95.41;101366.66;5072460;28;47519;-77
2022/01/10 11:22:40;;;;;;;;;21.00;18.25;;;;;7.54;95.49;101363.19;5072002;28;45879;-77
2022/01/10 11:25:28;;;;;;;;;28.00;23.00;;;;;7.53;95.40;101371.94;5072170;28;45934;-76
2022/01/10 11:27:58;;;;;;;;;30.25;22.00;;;;;7.52;95.55;101380.66;5072292;28;46261;-77
2022/01/10 11:30:40;;;;;;;;;38.00;23.75;;;;;7.52;95.47;101374.59;5072377;28;47143;-77
2022/01/10 11:33:11;;;;;;;;;23.25;20.75;;;;;7.47;95.45;101374.81;5053245;28;45913;-75
2022/01/10 11:35:40;;;;;;;;;34.75;26.50;;;;;7.47;95.51;101368.75;5071126;28;45756;-75
2022/01/10 11:38:16;;;;;;;;;23.75;20.00;;;;;7.52;95.40;101379.81;5070703;28;46444;-76
2022/01/10 11:40:43;;;;;;;;;29.00;22.75;;;;;7.54;95.64;101388.41;5073660;28;46116;-81
2022/01/10 11:43:25;;;;;;;;;22.75;18.75;;;;;7.44;95.46;101368.91;5075684;28;46254;-78
2022/01/10 11:46:03;;;;;;;;;27.25;22.25;;;;;7.58;95.44;101389.97;5075012;28;45663;-79
2022/01/10 11:49:00;;;;;;;;;23.25;20.00;;;;;7.55;95.41;101388.34;5074843;28;45620;-75
2022/01/10 11:51:37;;;;;;;;;31.00;23.50;;;;;7.63;95.28;101390.59;5075590;28;46470;-78
2022/01/10 11:54:26;;;;;;;;;32.75;28.50;;;;;7.68;95.18;101399.03;5075954;28;45624;-81
2022/01/10 11:56:53;;;;;;;;;31.25;23.50;;;;;7.69;95.48;101403.34;5076147;28;45766;-80
2022/01/10 11:59:42;;;;;;;;;29.00;23.75;;;;;7.70;95.31;101401.59;5057201;28;47943;-79
2022/01/10 12:02:14;;;;;;;;;27.50;24.75;;;;;7.72;95.23;101403.19;5075783;28;47237;-79
2022/01/10 12:04:45;;;;;;;;;26.75;23.75;;;;;7.65;95.49;101391.38;5075634;28;46045;-78
2022/01/10 12:07:14;;;;;;;;;32.50;23.25;;;;;7.73;95.27;101417.09;5075944;28;45678;-78
2022/01/10 12:09:40;;;;;;;;;33.50;29.50;;;;;7.71;95.45;101408.50;5075415;28;45613;-77
2022/01/10 12:12:10;;;;;;;;;28.75;26.50;;;;;7.69;95.45;101405.97;5075503;28;45599;-79
2022/01/10 12:14:35;;;;;;;;;40.25;31.00;;;;;7.72;95.28;101411.00;5075454;28;45688;-77
2022/01/10 12:17:01;;;;;;;;;24.25;24.00;;;;;7.64;95.41;101397.50;5075703;28;45601;-79
2022/01/10 12:19:27;;;;;;;;;28.00;23.75;;;;;7.71;95.61;101416.31;5075230;28;46238;-79
2022/01/10 12:21:53;;;;;;;;;36.25;28.00;;;;;7.78;95.34;101428.16;5075466;28;45596;-76
2022/01/10 12:24:19;;;;;;;;;41.25;30.75;;;;;7.78;95.37;101415.94;5075303;28;45737;-76
2022/01/10 12:26:45;;;;;;;;;36.50;29.75;;;;;7.80;95.45;101426.31;5075378;28;45759;-76
2022/01/10 12:29:12;;;;;;;;;33.75;29.25;;;;;7.81;95.18;101434.09;5074919;28;46232;-76
2022/01/10 12:31:40;;;;;;;;;34.75;29.00;;;;;7.79;95.11;101433.31;5074737;28;46279;-77
2022/01/10 12:34:08;;;;;;;;;39.50;32.75;;;;;7.83;95.24;101442.66;5073583;28;45716;-75
2022/01/10 12:36:35;;;;;;;;;30.25;27.25;;;;;7.85;95.40;101445.22;5057999;28;45802;-76
2022/01/10 12:39:18;;;;;;;;;31.50;26.50;;;;;7.86;95.61;101450.38;5075116;28;46678;-77
2022/01/10 12:41:44;;;;;;;;;30.00;24.00;;;;;7.84;95.28;101443.50;5075582;28;46024;-76